createdAt,value
2023-03-04T00:00:08.104Z,11.70
2023-03-04T00:02:39.450Z,11.67
2023-03-04T00:05:08.659Z,10.73
2023-03-04T00:07:36.581Z,10.07
2023-03-04T00:10:05.154Z,11.30
2023-03-04T00:12:33.141Z,10.47
2023-03-04T00:15:00.989Z,12.00
2023-03-04T00:17:30.254Z,11.03
2023-03-04T00:19:59.654Z,12.10
2023-03-04T00:22:27.628Z,12.37
2023-03-04T00:24:55.861Z,13.43
2023-03-04T00:27:23.788Z,13.47
2023-03-04T00:29:51.903Z,14.77
2023-03-04T00:32:20.089Z,14.00
2023-03-04T00:34:48.381Z,14.80
2023-03-04T00:37:17.755Z,14.77
2023-03-04T00:39:46.191Z,14.03
2023-03-04T00:42:14.357Z,14.53
2023-03-04T00:44:42.658Z,14.60
2023-03-04T00:47:10.813Z,14.47
2023-03-04T00:49:39.033Z,14.97
2023-03-04T00:52:07.393Z,14.00
2023-03-04T00:54:36.702Z,14.87
2023-03-04T00:57:04.814Z,13.93
2023-03-04T00:59:33.550Z,14.70
2023-03-04T01:02:02.071Z,14.83
2023-03-04T01:04:31.413Z,13.97
2023-03-04T01:07:01.053Z,14.03
2023-03-04T01:09:30.067Z,14.70
2023-03-04T01:11:59.595Z,15.33
2023-03-04T01:14:27.697Z,13.37
2023-03-04T01:16:55.843Z,13.80
2023-03-04T01:19:23.973Z,12.67
2023-03-04T01:21:51.991Z,12.07
2023-03-04T01:24:20.043Z,12.53
2023-03-04T01:26:48.437Z,13.00
2023-03-04T01:29:18.797Z,13.40
2023-03-04T01:31:46.801Z,13.10
2023-03-04T01:34:14.907Z,13.50
2023-03-04T01:36:43.077Z,14.30
2023-03-04T01:39:11.043Z,12.77
2023-03-04T01:41:39.102Z,15.10
2023-03-04T01:44:07.222Z,14.97
2023-03-04T01:46:36.829Z,14.83
2023-03-04T01:49:04.961Z,14.70
2023-03-04T01:51:33.083Z,15.10
2023-03-04T01:54:01.421Z,15.17
2023-03-04T01:56:31.879Z,14.87
2023-03-04T01:59:12.348Z,14.23
2023-03-04T02:01:44.007Z,14.73
2023-03-04T02:04:12.981Z,14.67
2023-03-04T02:06:42.526Z,15.67
2023-03-04T02:09:11.773Z,15.33
2023-03-04T02:11:40.662Z,16.33
2023-03-04T02:14:11.001Z,16.03
2023-03-04T02:16:41.306Z,14.80
2023-03-04T02:19:20.811Z,15.00
2023-03-04T02:21:49.078Z,15.90
2023-03-04T02:24:20.773Z,15.87
2023-03-04T02:26:50.430Z,16.43
2023-03-04T02:29:19.299Z,15.40
2023-03-04T02:31:49.230Z,14.50
2023-03-04T02:34:21.169Z,14.03
2023-03-04T02:36:52.396Z,15.47
2023-03-04T02:39:28.554Z,15.20
2023-03-04T02:41:58.403Z,16.47
2023-03-04T02:44:30.090Z,16.53
2023-03-04T02:46:59.760Z,14.40
2023-03-04T02:49:29.896Z,15.93
2023-03-04T02:52:02.926Z,15.43
2023-03-04T02:54:31.284Z,14.77
2023-03-04T02:57:02.782Z,14.87
2023-03-04T02:59:32.312Z,14.40
2023-03-04T03:02:00.425Z,15.10
2023-03-04T03:04:29.075Z,14.50
2023-03-04T03:06:58.664Z,15.30
2023-03-04T03:09:27.345Z,14.67
2023-03-04T03:11:57.182Z,16.27
2023-03-04T03:14:26.620Z,15.53
2023-03-04T03:16:55.688Z,15.53
2023-03-04T03:19:23.539Z,16.30
2023-03-04T03:21:53.456Z,15.77
2023-03-04T03:24:21.575Z,15.97
2023-03-04T03:26:49.667Z,16.23
2023-03-04T03:29:17.752Z,17.30
2023-03-04T03:31:47.382Z,16.53
2023-03-04T03:34:15.347Z,15.87
2023-03-04T03:36:43.473Z,17.47
2023-03-04T03:39:11.470Z,15.97
2023-03-04T03:41:39.657Z,17.10
2023-03-04T03:44:07.609Z,16.13
2023-03-04T03:46:35.954Z,16.20
2023-03-04T03:49:05.308Z,18.07
2023-03-04T03:51:33.578Z,19.00
2023-03-04T03:54:01.625Z,18.43
2023-03-04T03:56:29.805Z,17.53
2023-03-04T03:58:57.856Z,18.73
2023-03-04T04:01:26.018Z,18.53
2023-03-04T04:03:54.241Z,18.20
2023-03-04T04:06:23.722Z,19.63
2023-03-04T04:08:51.948Z,19.37
2023-03-04T04:11:20.368Z,18.00
2023-03-04T04:13:48.337Z,18.60
2023-03-04T04:16:16.752Z,18.43
2023-03-04T04:18:44.874Z,18.67
2023-03-04T04:21:12.950Z,18.67
2023-03-04T04:23:42.410Z,19.13
2023-03-04T04:26:10.412Z,18.63
2023-03-04T04:28:38.401Z,19.00
2023-03-04T04:31:08.909Z,17.93
2023-03-04T04:33:38.095Z,18.47
2023-03-04T04:36:06.776Z,19.33
2023-03-04T04:38:34.824Z,19.37
2023-03-04T04:41:04.544Z,17.83
2023-03-04T04:43:32.482Z,18.13
2023-03-04T04:46:00.763Z,18.63
2023-03-04T04:48:28.690Z,17.70
2023-03-04T04:50:57.162Z,18.10
2023-03-04T04:53:25.210Z,17.47
2023-03-04T04:55:53.104Z,18.57
2023-03-04T04:58:22.640Z,19.03
2023-03-04T05:00:50.616Z,19.60
2023-03-04T05:03:18.834Z,18.63
2023-03-04T05:05:47.290Z,18.30
2023-03-04T05:08:15.180Z,19.00
2023-03-04T05:10:43.062Z,19.00
2023-03-04T05:13:10.900Z,19.83
2023-03-04T05:15:40.241Z,19.80
2023-03-04T05:18:08.372Z,19.17
2023-03-04T05:20:36.309Z,19.27
2023-03-04T05:23:04.860Z,18.90
2023-03-04T05:25:32.791Z,19.27
2023-03-04T05:28:02.078Z,19.30
2023-03-04T05:30:30.097Z,19.77
2023-03-04T05:32:59.371Z,19.23
2023-03-04T05:35:29.068Z,19.77
2023-03-04T05:37:57.517Z,19.33
2023-03-04T05:40:25.786Z,19.30
2023-03-04T05:42:53.887Z,19.73
2023-03-04T05:45:22.228Z,20.13
2023-03-04T05:47:50.345Z,19.27
2023-03-04T05:50:20.474Z,19.90
2023-03-04T05:52:48.726Z,20.10
2023-03-04T05:55:17.854Z,19.37
2023-03-04T05:57:46.171Z,18.67
2023-03-04T06:00:15.524Z,20.13
2023-03-04T06:02:44.586Z,19.37
2023-03-04T06:05:13.851Z,19.63
2023-03-04T06:07:44.337Z,19.40
2023-03-04T06:10:14.115Z,18.27
2023-03-04T06:12:42.317Z,19.33
2023-03-04T06:15:11.380Z,20.23
2023-03-04T06:17:42.135Z,19.87
2023-03-04T06:20:12.267Z,18.67
2023-03-04T06:22:40.918Z,19.70
2023-03-04T06:25:11.812Z,22.90
2023-03-04T06:27:39.809Z,21.90
2023-03-04T06:30:08.938Z,23.67
2023-03-04T06:32:37.025Z,22.23
2023-03-04T06:35:05.459Z,22.07
2023-03-04T06:37:33.654Z,22.30
2023-03-04T06:40:03.505Z,21.00
2023-03-04T06:42:33.442Z,20.10
2023-03-04T06:45:01.515Z,20.53
2023-03-04T06:47:29.712Z,20.87
2023-03-04T06:49:57.836Z,19.97
2023-03-04T06:52:26.071Z,20.87
2023-03-04T06:54:54.166Z,19.93
2023-03-04T06:57:22.065Z,20.03
2023-03-04T06:59:51.566Z,20.77
2023-03-04T07:02:19.520Z,20.03
2023-03-04T07:04:47.728Z,19.87
2023-03-04T07:07:15.778Z,19.93
2023-03-04T07:09:43.823Z,20.83
2023-03-04T07:12:11.733Z,21.33
2023-03-04T07:14:39.632Z,20.23
2023-03-04T07:17:08.871Z,20.17
2023-03-04T07:19:37.124Z,21.47
2023-03-04T07:22:05.112Z,20.53
2023-03-04T07:24:33.135Z,21.27
2023-03-04T07:27:01.259Z,20.50
2023-03-04T07:29:29.154Z,21.60
2023-03-04T07:31:57.504Z,19.67
2023-03-04T07:34:26.946Z,20.73
2023-03-04T07:36:55.074Z,20.10
2023-03-04T07:39:23.182Z,18.83
2023-03-04T07:41:51.273Z,19.83
2023-03-04T07:44:19.491Z,21.03
2023-03-04T07:46:47.362Z,20.83
2023-03-04T07:49:15.521Z,23.07
2023-03-04T07:51:44.842Z,21.47
2023-03-04T07:54:13.116Z,23.03
2023-03-04T07:56:41.327Z,21.13
2023-03-04T07:59:09.258Z,22.30
2023-03-04T08:01:39.066Z,21.70
2023-03-04T08:04:08.947Z,20.40
2023-03-04T08:06:36.941Z,20.60
2023-03-04T08:09:08.552Z,18.67
2023-03-04T08:11:38.522Z,20.37
2023-03-04T08:14:07.144Z,19.10
2023-03-04T08:16:35.264Z,18.47
2023-03-04T08:19:05.075Z,19.97
2023-03-04T08:21:33.500Z,18.30
2023-03-04T08:24:08.288Z,19.40
2023-03-04T08:26:41.745Z,17.17
2023-03-04T08:29:13.529Z,17.60
2023-03-04T08:31:41.741Z,16.93
2023-03-04T08:34:11.554Z,17.87
2023-03-04T08:36:39.687Z,17.40
2023-03-04T08:39:07.990Z,15.37
2023-03-04T08:41:36.203Z,15.73
2023-03-04T08:44:08.241Z,13.50
2023-03-04T08:46:36.309Z,12.37
2023-03-04T08:49:04.890Z,11.47
2023-03-04T08:51:33.082Z,12.80
2023-03-04T08:54:01.068Z,16.17
2023-03-04T08:56:29.254Z,15.93
2023-03-04T08:58:57.512Z,16.33
2023-03-04T09:01:26.933Z,16.37
2023-03-04T09:03:55.267Z,17.63
2023-03-04T09:06:23.252Z,19.70
2023-03-04T09:08:51.225Z,18.23
2023-03-04T09:11:19.211Z,20.63
2023-03-04T09:13:47.438Z,18.40
2023-03-04T09:16:16.010Z,18.10
2023-03-04T09:18:45.396Z,17.30
2023-03-04T09:21:13.632Z,15.63
2023-03-04T09:23:41.907Z,15.90
2023-03-04T09:26:18.617Z,16.20
2023-03-04T09:28:46.467Z,14.23
2023-03-04T09:31:16.172Z,10.97
2023-03-04T09:33:45.814Z,9.13
2023-03-04T09:36:15.517Z,6.73
2023-03-04T09:38:44.049Z,6.87
2023-03-04T09:41:17.576Z,6.50
2023-03-04T09:43:46.340Z,5.67
2023-03-04T09:46:17.702Z,6.40
2023-03-04T09:48:49.836Z,6.23
2023-03-04T09:51:24.297Z,5.10
2023-03-04T09:54:07.111Z,5.73
2023-03-04T09:56:37.871Z,5.07
2023-03-04T09:59:16.086Z,5.90
2023-03-04T10:01:50.750Z,5.33
2023-03-04T10:04:31.244Z,5.37
2023-03-04T10:07:00.126Z,6.30
2023-03-04T10:09:33.526Z,5.43
2023-03-04T10:12:06.262Z,5.80
2023-03-04T10:14:38.512Z,5.83
2023-03-04T10:17:14.374Z,5.17
2023-03-04T10:19:56.545Z,4.87
2023-03-04T10:22:32.441Z,4.50
2023-03-04T10:25:09.260Z,4.87
2023-03-04T10:27:37.475Z,3.80
2023-03-04T10:30:12.255Z,2.90
2023-03-04T10:32:47.081Z,3.43
2023-03-04T10:35:17.507Z,4.27
2023-03-04T10:37:49.180Z,3.80
2023-03-04T10:40:23.707Z,3.80
2023-03-04T10:42:54.909Z,4.40
2023-03-04T10:45:24.725Z,4.17
2023-03-04T10:47:58.656Z,4.30
2023-03-04T10:50:29.346Z,4.40
2023-03-04T10:52:58.114Z,3.17
2023-03-04T10:55:28.931Z,3.03
2023-03-04T10:58:03.421Z,2.73
2023-03-04T11:00:33.523Z,2.10
2023-03-04T11:03:29.425Z,1.97
2023-03-04T11:06:18.273Z,2.20
2023-03-04T11:08:54.006Z,2.00
2023-03-04T11:11:29.810Z,2.30
2023-03-04T11:14:02.482Z,1.60
2023-03-04T11:16:32.629Z,1.77
2023-03-04T11:19:05.570Z,1.83
2023-03-04T11:21:40.721Z,1.60
2023-03-04T11:24:27.718Z,1.47
2023-03-04T11:27:00.536Z,1.80
2023-03-04T11:29:34.954Z,3.37
2023-03-04T11:32:10.948Z,3.03
2023-03-04T11:34:43.763Z,2.20
2023-03-04T11:37:20.099Z,2.67
2023-03-04T11:39:53.161Z,1.67
2023-03-04T11:42:33.774Z,1.33
2023-03-04T11:45:02.311Z,1.37
2023-03-04T11:47:55.911Z,1.40
2023-03-04T11:50:29.931Z,1.10
2023-03-04T11:53:20.939Z,1.30
2023-03-04T11:55:57.338Z,1.13
2023-03-04T11:58:44.331Z,1.10
2023-03-04T12:01:19.442Z,1.40
2023-03-04T12:04:08.571Z,1.00
2023-03-04T12:06:44.773Z,1.00
2023-03-04T12:09:30.509Z,1.30
2023-03-04T12:12:08.248Z,1.20
2023-03-04T12:14:42.056Z,1.20
2023-03-04T12:17:33.814Z,1.00
2023-03-04T12:20:18.981Z,1.20
2023-03-04T12:22:53.603Z,1.07
2023-03-04T12:25:45.488Z,1.20
2023-03-04T12:28:41.882Z,1.17
2023-03-04T12:31:24.296Z,1.17
2023-03-04T12:34:05.814Z,1.40
2023-03-04T12:36:39.393Z,1.07
2023-03-04T12:39:24.852Z,1.00
2023-03-04T12:42:06.995Z,1.00
2023-03-04T12:44:39.644Z,1.00
2023-03-04T12:47:28.735Z,0.90
2023-03-04T12:50:23.077Z,1.20
2023-03-04T12:52:58.732Z,0.73
2023-03-04T12:55:36.344Z,0.83
2023-03-04T12:58:07.159Z,1.10
2023-03-04T13:00:46.458Z,1.13
2023-03-04T13:03:22.428Z,1.53
2023-03-04T13:06:18.183Z,1.20
2023-03-04T13:09:00.603Z,1.10
2023-03-04T13:11:54.627Z,1.70
2023-03-04T13:14:32.735Z,1.53
2023-03-04T13:17:02.675Z,1.77
2023-03-04T13:19:52.702Z,2.10
2023-03-04T13:22:47.381Z,3.67
2023-03-04T13:25:37.111Z,3.10
2023-03-04T13:28:32.943Z,3.80
2023-03-04T13:31:16.640Z,3.67
2023-03-04T13:34:04.504Z,4.33
2023-03-04T13:37:04.709Z,4.10
2023-03-04T13:39:36.534Z,3.43
2023-03-04T13:42:26.148Z,4.13
2023-03-04T13:44:59.335Z,3.70
2023-03-04T13:47:49.665Z,3.73
2023-03-04T13:50:37.887Z,4.17
2023-03-04T13:53:42.751Z,4.20
2023-03-04T13:56:37.476Z,5.00
2023-03-04T13:59:29.522Z,6.43
2023-03-04T14:02:04.201Z,8.03
2023-03-04T14:04:35.751Z,7.67
2023-03-04T14:07:17.798Z,6.90
2023-03-04T14:09:58.649Z,6.23
2023-03-04T14:12:28.480Z,6.67
2023-03-04T14:15:02.107Z,6.43
2023-03-04T14:17:33.457Z,13.90
2023-03-04T14:20:04.893Z,9.87
2023-03-04T14:22:34.958Z,7.87
2023-03-04T14:25:06.302Z,7.47
2023-03-04T14:27:36.285Z,7.10
2023-03-04T14:30:07.569Z,6.53
2023-03-04T14:32:35.852Z,6.57
2023-03-04T14:35:08.221Z,7.03
2023-03-04T14:37:45.321Z,6.27
2023-03-04T14:40:22.567Z,6.00
2023-03-04T14:42:54.428Z,6.37
2023-03-04T14:45:24.805Z,6.00
2023-03-04T14:47:55.533Z,6.33
2023-03-04T14:50:24.934Z,6.40
2023-03-04T14:53:11.587Z,5.90
2023-03-04T14:55:40.017Z,5.63
2023-03-04T14:58:09.895Z,6.07
2023-03-04T15:00:43.308Z,5.87
2023-03-04T15:03:21.933Z,5.77
2023-03-04T15:05:53.010Z,6.10
2023-03-04T15:08:24.681Z,5.30
2023-03-04T15:10:56.659Z,5.27
2023-03-04T15:13:39.446Z,5.27
2023-03-04T15:16:08.579Z,4.70
2023-03-04T15:18:37.203Z,5.60
2023-03-04T15:21:27.950Z,5.33
2023-03-04T15:23:56.126Z,5.20
2023-03-04T15:26:24.447Z,4.97
2023-03-04T15:28:53.042Z,5.00
2023-03-04T15:31:22.954Z,5.80
2023-03-04T15:33:51.155Z,4.70
2023-03-04T15:36:23.059Z,4.60
2023-03-04T15:38:53.042Z,5.23
2023-03-04T15:41:24.463Z,5.20
2023-03-04T15:43:52.854Z,5.00
2023-03-04T15:46:21.230Z,4.70
2023-03-04T15:48:49.502Z,5.40
2023-03-04T15:51:22.217Z,4.67
2023-03-04T15:53:52.694Z,4.57
2023-03-04T15:56:22.946Z,4.87
2023-03-04T15:58:55.721Z,4.93
2023-03-04T16:01:24.787Z,4.23
2023-03-04T16:03:54.009Z,4.60
2023-03-04T16:06:26.650Z,4.60
2023-03-04T16:08:54.769Z,4.53
2023-03-04T16:11:25.284Z,4.40
2023-03-04T16:13:53.708Z,3.73
2023-03-04T16:16:22.566Z,3.70
2023-03-04T16:18:50.512Z,3.30
2023-03-04T16:21:23.386Z,3.17
2023-03-04T16:23:54.381Z,3.43
2023-03-04T16:26:24.556Z,2.97
2023-03-04T16:28:52.906Z,2.90
2023-03-04T16:31:22.201Z,3.07
2023-03-04T16:33:50.222Z,2.93
2023-03-04T16:36:23.286Z,2.83
2023-03-04T16:38:55.388Z,3.53
2023-03-04T16:41:28.914Z,2.97
2023-03-04T16:43:59.150Z,2.73
2023-03-04T16:46:27.556Z,2.73
2023-03-04T16:48:55.923Z,2.93
2023-03-04T16:51:24.890Z,2.87
2023-03-04T16:53:57.176Z,2.90
2023-03-04T16:56:25.462Z,2.77
2023-03-04T16:58:54.036Z,3.13
2023-03-04T17:01:24.089Z,3.53
2023-03-04T17:03:52.443Z,3.50
2023-03-04T17:06:21.355Z,2.93
2023-03-04T17:08:49.738Z,2.80
2023-03-04T17:11:21.620Z,3.80
2023-03-04T17:13:50.580Z,3.53
2023-03-04T17:16:18.900Z,4.40
2023-03-04T17:18:47.296Z,3.77
2023-03-04T17:21:17.805Z,4.23
2023-03-04T17:23:45.842Z,4.63
2023-03-04T17:26:15.421Z,4.43
2023-03-04T17:28:44.780Z,4.37
2023-03-04T17:31:13.995Z,4.37
2023-03-04T17:33:43.671Z,4.10
2023-03-04T17:36:13.089Z,4.27
2023-03-04T17:38:41.407Z,4.70
2023-03-04T17:41:13.333Z,5.03
2023-03-04T17:43:45.462Z,4.37
2023-03-04T17:46:15.106Z,4.17
2023-03-04T17:48:43.407Z,4.93
2023-03-04T17:51:12.143Z,4.23
2023-03-04T17:53:40.504Z,5.80
2023-03-04T17:56:09.941Z,7.03
2023-03-04T17:58:38.519Z,6.37
2023-03-04T18:01:16.886Z,6.50
2023-03-04T18:03:45.225Z,5.60
2023-03-04T18:06:13.451Z,4.93
2023-03-04T18:08:41.842Z,5.50
2023-03-04T18:11:10.280Z,5.00
2023-03-04T18:13:39.050Z,4.30
2023-03-04T18:16:09.507Z,4.97
2023-03-04T18:18:38.073Z,5.07
2023-03-04T18:21:06.612Z,5.07
2023-03-04T18:23:35.656Z,4.83
2023-03-04T18:26:04.680Z,5.17
2023-03-04T18:28:33.990Z,5.20
2023-03-04T18:31:02.089Z,4.50
2023-03-04T18:33:32.255Z,5.23
2023-03-04T18:36:01.021Z,4.53
2023-03-04T18:38:29.841Z,4.80
2023-03-04T18:40:59.951Z,4.73
2023-03-04T18:43:28.500Z,4.67
2023-03-04T18:46:04.178Z,5.47
2023-03-04T18:48:37.620Z,5.10
2023-03-04T18:51:06.046Z,5.13
2023-03-04T18:53:34.613Z,5.77
2023-03-04T18:56:08.146Z,5.03
2023-03-04T18:58:39.287Z,5.33
2023-03-04T19:01:10.361Z,5.47
2023-03-04T19:03:41.812Z,5.47
2023-03-04T19:06:10.336Z,6.10
2023-03-04T19:08:38.319Z,5.47
2023-03-04T19:11:06.667Z,6.03
2023-03-04T19:13:34.859Z,5.90
2023-03-04T19:16:02.796Z,5.87
2023-03-04T19:18:31.262Z,5.77
2023-03-04T19:21:04.155Z,5.93
2023-03-04T19:23:33.547Z,5.70
2023-03-04T19:26:01.588Z,6.07
2023-03-04T19:28:30.060Z,5.73
2023-03-04T19:30:59.455Z,5.80
2023-03-04T19:33:27.687Z,5.77
2023-03-04T19:35:55.609Z,5.90
2023-03-04T19:38:24.899Z,5.90
2023-03-04T19:40:53.285Z,6.30
2023-03-04T19:43:21.415Z,6.23
2023-03-04T19:45:54.576Z,6.23
2023-03-04T19:48:23.264Z,6.63
2023-03-04T19:50:51.422Z,6.23
2023-03-04T19:53:19.445Z,5.60
2023-03-04T19:55:49.694Z,6.17
2023-03-04T19:58:17.867Z,5.93
2023-03-04T20:00:46.443Z,5.93
2023-03-04T20:03:14.918Z,5.80
2023-03-04T20:05:43.088Z,5.57
2023-03-04T20:08:11.350Z,5.87
2023-03-04T20:10:40.919Z,5.77
2023-03-04T20:13:10.876Z,5.23
2023-03-04T20:15:43.613Z,5.30
2023-03-04T20:18:11.707Z,4.33
2023-03-04T20:20:39.725Z,4.93
2023-03-04T20:23:09.343Z,4.90
2023-03-04T20:25:37.512Z,4.20
2023-03-04T20:28:05.796Z,4.20
2023-03-04T20:30:35.543Z,4.20
2023-03-04T20:33:03.478Z,4.47
2023-03-04T20:35:33.658Z,4.23
2023-03-04T20:38:02.229Z,4.10
2023-03-04T20:40:30.887Z,3.50
2023-03-04T20:42:58.798Z,3.73
2023-03-04T20:45:26.675Z,3.70
2023-03-04T20:47:55.896Z,3.83
2023-03-04T20:50:23.856Z,3.37
2023-03-04T20:52:51.875Z,3.40
2023-03-04T20:55:20.178Z,2.97
2023-03-04T20:57:49.468Z,2.87
2023-03-04T21:00:18.232Z,3.07
2023-03-04T21:02:46.281Z,3.60
2023-03-04T21:05:15.812Z,3.50
2023-03-04T21:07:44.387Z,3.57
2023-03-04T21:10:12.853Z,2.80
2023-03-04T21:12:40.985Z,3.07
2023-03-04T21:15:10.173Z,3.10
2023-03-04T21:17:38.257Z,2.67
2023-03-04T21:20:07.151Z,2.67
2023-03-04T21:22:36.630Z,2.33
2023-03-04T21:25:05.077Z,2.57
2023-03-04T21:27:33.195Z,2.60
2023-03-04T21:30:01.145Z,3.40
2023-03-04T21:32:29.731Z,5.00
2023-03-04T21:34:57.681Z,4.57
2023-03-04T21:37:26.900Z,4.33
2023-03-04T21:39:58.212Z,6.20
2023-03-04T21:42:26.181Z,7.40
2023-03-04T21:44:54.110Z,6.67
2023-03-04T21:47:22.893Z,5.93
2023-03-04T21:49:51.317Z,5.03
2023-03-04T21:52:20.760Z,3.93
2023-03-04T21:54:48.841Z,3.27
2023-03-04T21:57:18.658Z,3.40
2023-03-04T21:59:46.772Z,2.43
2023-03-04T22:02:15.997Z,2.17
2023-03-04T22:04:44.034Z,1.90
2023-03-04T22:07:12.322Z,1.87
2023-03-04T22:09:40.506Z,1.80
2023-03-04T22:12:08.892Z,2.13
2023-03-04T22:14:38.144Z,1.90
2023-03-04T22:17:06.665Z,1.73
2023-03-04T22:19:34.710Z,1.47
2023-03-04T22:22:02.565Z,2.13
2023-03-04T22:24:30.745Z,1.70
2023-03-04T22:26:59.939Z,1.40
2023-03-04T22:29:27.799Z,1.70
2023-03-04T22:31:57.172Z,1.50
2023-03-04T22:34:25.419Z,1.60
2023-03-04T22:36:53.434Z,1.77
2023-03-04T22:39:22.913Z,1.93
2023-03-04T22:41:51.550Z,1.50
2023-03-04T22:44:19.901Z,1.87
2023-03-04T22:46:47.770Z,2.13
2023-03-04T22:49:17.354Z,1.77
2023-03-04T22:51:45.862Z,1.83
2023-03-04T22:54:15.402Z,2.20
2023-03-04T22:56:43.917Z,1.60
2023-03-04T22:59:12.598Z,2.07
2023-03-04T23:01:40.492Z,2.07
2023-03-04T23:04:08.587Z,2.30
2023-03-04T23:06:38.089Z,2.03
2023-03-04T23:09:06.733Z,1.63
2023-03-04T23:11:36.631Z,1.80
2023-03-04T23:14:07.090Z,2.10
2023-03-04T23:16:37.483Z,2.20
2023-03-04T23:19:05.702Z,2.20
2023-03-04T23:21:34.521Z,1.80
2023-03-04T23:24:06.558Z,2.20
2023-03-04T23:26:38.543Z,2.20
2023-03-04T23:29:08.546Z,2.47
2023-03-04T23:31:36.633Z,1.77
2023-03-04T23:34:05.441Z,1.97
2023-03-04T23:36:35.595Z,2.53
2023-03-04T23:39:05.718Z,2.57
2023-03-04T23:41:35.245Z,2.50
2023-03-04T23:44:04.465Z,2.00
2023-03-04T23:46:32.640Z,2.20
2023-03-04T23:49:01.230Z,1.77
2023-03-04T23:51:30.338Z,2.27
2023-03-04T23:53:59.369Z,1.80
2023-03-04T23:56:30.429Z,2.03
2023-03-04T23:58:59.878Z,1.80
